Weather at Warukin Airport

Public forecast

Using degrees Celsius for public forecast. Weather courtesy of forecast.io.

Closest aviation weather report (METAR) to Warukin Airport

Closest report is Syamsudin Noor International Airport, 83.9 nm (155.4 km) SSW.

2024/06/20 18:00 (retrieved 43 minutes ago)

WAOO 201800Z AUTO 11003KT 9999 NCD 25/23 Q1008

Closest aviation forecast (TAF) to Warukin Airport

Closest forecast is Syamsudin Noor International Airport, 83.9 nm (155.4 km) SSW.

2024/06/20 18:50 (retrieved 0 seconds ago)

TAF WAOO 201700Z 2018/2118 12006KT 9999 FEW020